Latest Weather Observations for Kalumburu

IDD60801

Issued at 9:31 pm CST Monday 30 May 2016 (issued every 30 minutes, with the page automatically refreshed every 10 minutes)

About weather observations | Map of weather stations | Latest weather observations for NT | Other Formats
Station Details ID: 001019 Name: KALUMBURU Lat: -14.30 Lon: 126.65 Height: 23.0 m
Data from the previous 72 hours. | See also: Recent months at Kalumburu
Date/Time
CST
Temp
°C
App
Temp
°C
Dew
Point
Rel
Hum
%
Delta-T
°C
Wind Press
QNH
hPa
Press
MSL
hPa
Rain
since 9 am
mm
Dir
 
Spd
km/h
Gust
km/h
Spd
kts
Gust
kts
30/09:30pm 25.7 29.7 20.5 73 3.4 CALM 0 0 0 0 1013.8 1013.7 0.0
30/09:00pm 26.6 29.3 20.2 68 4.2 N 6 6 3 3 1013.5 1013.4 0.0
30/08:30pm 27.5 29.8 19.8 63 5.0 N 7 7 4 4 1013.1 1013.0 0.0
30/08:00pm 28.3 30.6 19.8 60 5.6 N 7 11 4 6 1012.8 1012.7 0.0
30/07:30pm 28.6 30.5 19.8 59 5.8 N 9 15 5 8 1012.4 1012.3 0.0
30/07:00pm 29.1 30.8 19.4 55 6.3 N 9 13 5 7 1012.1 1012.0 0.0
30/06:30pm 29.9 31.1 19.0 52 7.1 N 11 17 6 9 1011.7 1011.6 0.0
30/06:00pm 30.9 31.3 18.9 48 7.8 NNW 15 20 8 11 1011.2 1011.1 0.0
30/05:30pm 31.7 32.0 18.7 46 8.5 NNW 15 20 8 11 1010.9 1010.8 0.0
30/05:00pm 32.2 32.5 19.5 47 8.4 NNW 17 20 9 11 1010.6 1010.5 0.0
30/04:30pm 32.6 32.5 18.8 44 9.0 NNW 17 22 9 12 1010.3 1010.2 0.0
30/04:00pm 33.5 33.4 18.8 41 9.6 NNW 17 26 9 14 1010.3 1010.2 0.0
30/03:30pm 33.6 33.4 18.5 40 9.8 NNW 17 26 9 14 1010.3 1010.2 0.0
30/03:00pm 33.7 33.6 17.8 38 10.3 NW 15 24 8 13 1010.4 1010.3 0.0
30/02:30pm 33.8 33.7 17.9 38 10.3 NW 15 20 8 11 1010.7 1010.6 0.0
30/02:00pm 33.8 34.1 17.9 38 10.3 NW 13 22 7 12 1011.1 1011.0 0.0
30/01:30pm 33.9 35.2 19.2 42 9.7 WNW 11 22 6 12 1011.6 1011.5 0.0
30/01:00pm 33.1 34.2 18.1 41 9.7 NNE 9 19 5 10 1012.1 1012.0 0.0
30/12:30pm 33.6 35.3 18.5 40 9.8 NNW 7 17 4 9 1012.5 1012.4 0.0
30/12:00pm 33.1 35.1 19.2 43 9.1 NW 7 15 4 8 1013.0 1012.9 0.0
30/11:30am 31.9 34.6 20.2 50 7.8 N 6 11 3 6 1013.4 1013.3 0.0
30/11:00am 31.3 33.8 20.3 52 7.3 NNW 7 13 4 7 1013.7 1013.6 0.0
30/10:30am 30.3 32.7 20.8 56 6.3 WNW 9 13 5 7 1014.0 1013.9 0.0
30/10:00am 30.0 34.7 22.7 65 5.0 W 2 7 1 4 1014.1 1014.0 0.0
30/09:30am 28.2 32.7 23.6 76 3.2 SSE 6 7 3 4 1014.1 1014.0 0.0
30/09:00am 26.3 30.4 23.0 82 2.2 SSE 6 9 3 5 1014.1 1014.0 0.0
30/08:30am 24.6 29.9 23.0 91 1.1 CALM 0 0 0 0 1013.8 1013.7 0.0
30/08:00am 22.3 26.4 20.8 91 1.0 CALM 0 0 0 0 1013.5 1013.4 0.0
30/07:30am 21.8 25.7 20.3 91 1.0 CALM 0 0 0 0 1013.1 1013.0 0.0
30/07:00am 21.6 25.3 19.9 90 1.1 CALM 0 0 0 0 1012.8 1012.7 0.0
30/06:30am 21.8 25.6 20.1 90 1.1 CALM 0 0 0 0 1012.4 1012.3 0.0
30/06:00am 22.4 26.6 20.9 91 1.0 CALM 0 0 0 0 1012.3 1012.2 0.0
30/05:30am 21.9 25.7 20.2 90 1.1 CALM 0 0 0 0 1012.2 1012.1 0.0
30/05:00am 22.6 26.8 20.9 90 1.1 CALM 0 6 0 3 1012.1 1012.0 0.0
30/04:30am 22.1 25.9 20.2 89 1.2 CALM 0 0 0 0 1012.0 1011.9 0.0
30/04:00am 22.9 26.1 21.2 90 1.1 SSW 6 7 3 4 1012.2 1012.1 0.0
30/03:30am 22.9 27.2 21.2 90 1.1 CALM 0 0 0 0 1012.1 1012.0 0.0
30/03:00am 23.1 27.4 21.2 89 1.2 CALM 0 0 0 0 1012.2 1012.1 0.0
30/02:30am 23.2 27.6 21.3 89 1.2 CALM 0 0 0 0 1012.2 1012.1 0.0
30/02:00am 23.5 28.0 21.6 89 1.3 CALM 0 0 0 0 1012.2 1012.1 0.0
30/01:30am 23.8 28.5 21.9 89 1.3 CALM 0 0 0 0 1012.4 1012.3 0.0
30/01:00am 23.6 27.9 21.1 86 1.6 CALM 0 0 0 0 1012.5 1012.4 0.0
30/12:30am 24.3 29.0 22.0 87 1.5 CALM 0 0 0 0 1012.4 1012.3 0.0
30/12:00am 24.7 29.6 22.4 87 1.5 CALM 0 0 0 0 1012.5 1012.4 0.0
 
Date/Time
CST
Temp
°C
App
Temp
°C
Dew
Point
Rel
Hum
%
Delta-T
°C
Wind Press
QNH
hPa
Press
MSL
hPa
Rain
since 9 am
mm
Dir
 
Spd
km/h
Gust
km/h
Spd
kts
Gust
kts
29/11:30pm 24.8 29.7 22.3 86 1.7 CALM 0 0 0 0 1012.6 1012.5 0.0
29/11:00pm 25.0 29.9 22.3 85 1.8 CALM 0 0 0 0 1012.9 1012.8 0.0
29/10:30pm 25.5 30.3 22.2 82 2.2 CALM 0 0 0 0 1013.1 1013.0 0.0
29/10:00pm 26.3 31.4 22.6 80 2.5 CALM 0 0 0 0 1013.0 1012.9 0.0
29/09:30pm 27.5 31.3 22.7 75 3.3 N 7 9 4 5 1012.9 1012.8 0.0
29/09:00pm 28.1 31.4 22.6 72 3.7 N 9 13 5 7 1012.7 1012.6 0.0
29/08:30pm 28.5 31.7 23.0 72 3.8 N 11 17 6 9 1012.5 1012.4 0.0
29/08:00pm 28.6 31.9 22.6 70 4.1 NNW 9 15 5 8 1012.0 1011.9 0.0
29/07:30pm 28.9 31.8 22.4 68 4.4 N 11 17 6 9 1011.7 1011.6 0.0
29/07:00pm 29.2 32.1 21.7 64 5.0 N 9 13 5 7 1011.4 1011.3 0.0
29/06:30pm 30.1 31.9 21.2 59 6.0 N 13 17 7 9 1011.0 1010.9 0.0
29/06:00pm 31.3 32.7 20.3 52 7.3 NNW 13 19 7 10 1010.5 1010.4 0.0
29/05:30pm 32.2 33.1 20.8 51 7.6 NNW 17 26 9 14 1010.0 1009.9 0.0
29/05:00pm 32.8 34.5 21.6 51 7.6 NNW 15 24 8 13 1009.8 1009.7 0.0
29/04:30pm 33.4 33.6 20.2 46 8.8 N 19 30 10 16 1009.6 1009.5 0.0
29/04:00pm 33.6 33.4 19.7 44 9.2 N 20 30 11 16 1009.6 1009.5 0.0
29/03:30pm 34.8 34.6 18.4 38 10.7 NNW 17 22 9 12 1009.5 1009.4 0.0
29/03:00pm 35.0 34.6 18.1 36 11.0 NNW 17 24 9 13 1009.8 1009.7 0.0
29/02:30pm 35.7 35.0 16.4 31 12.3 N 15 24 8 13 1010.2 1010.1 0.0
29/02:00pm 35.6 35.5 15.9 31 12.5 NNE 11 20 6 11 1010.4 1010.3 0.0
29/01:30pm 35.5 35.9 14.7 28 12.9 S 6 9 3 5 1011.1 1011.0 0.0
29/01:00pm 35.3 35.8 15.6 31 12.4 W 7 15 4 8 1011.6 1011.5 0.0
29/12:30pm 34.5 34.8 15.9 33 11.7 W 9 13 5 7 1012.1 1012.0 0.0
29/12:00pm 34.3 34.8 16.6 34 11.3 W 9 15 5 8 1012.5 1012.4 0.0
29/11:30am 33.1 35.1 19.2 43 9.1 SSE 7 11 4 6 1013.2 1013.1 0.0
29/11:00am 32.2 34.6 20.8 51 7.6 SSW 9 15 5 8 1013.7 1013.6 0.0
29/10:30am 30.9 34.2 21.4 57 6.4 SSW 6 9 3 5 1013.9 1013.8 0.0
29/10:00am 29.8 33.5 22.3 64 5.1 W 6 9 3 5 1013.9 1013.8 0.0
29/09:30am 28.2 33.1 22.4 71 3.9 CALM 0 0 0 0 1013.8 1013.7 0.0
29/09:00am 26.6 31.5 22.4 78 2.8 CALM 0 0 0 0 1013.6 1013.5 0.0
29/08:30am 23.9 28.7 22.2 90 1.1 CALM 0 0 0 0 1013.4 1013.3 0.0
29/08:00am 21.5 25.2 20.0 91 1.0 CALM 0 0 0 0 1013.2 1013.1 0.0
29/07:30am 20.9 24.2 19.2 90 1.1 CALM 0 0 0 0 1012.8 1012.7 0.0
29/07:00am 20.7 24.0 19.0 90 1.1 CALM 0 0 0 0 1012.2 1012.1 0.0
29/06:30am 21.0 24.4 19.3 90 1.1 CALM 0 0 0 0 1011.9 1011.8 0.0
29/06:00am 21.0 24.3 19.1 89 1.2 CALM 0 0 0 0 1011.7 1011.6 0.0
29/05:30am 20.9 24.2 19.0 89 1.2 CALM 0 0 0 0 1011.4 1011.3 0.0
29/05:00am 21.2 24.6 19.3 89 1.2 CALM 0 0 0 0 1011.2 1011.1 0.0
29/04:30am 21.2 24.5 19.1 88 1.3 CALM 0 0 0 0 1011.3 1011.2 0.0
29/04:00am 21.7 25.2 19.6 88 1.3 CALM 0 0 0 0 1011.1 1011.0 0.0
29/03:30am 21.7 25.1 19.4 87 1.5 CALM 0 0 0 0 1011.1 1011.0 0.0
29/03:00am 21.9 25.4 19.6 87 1.5 CALM 0 0 0 0 1011.2 1011.1 0.0
29/02:30am 22.0 25.5 19.5 86 1.6 CALM 0 0 0 0 1011.3 1011.2 0.0
29/02:00am 22.2 25.6 19.4 84 1.8 CALM 0 0 0 0 1011.5 1011.4 0.0
29/01:30am 22.5 26.0 19.5 83 1.9 CALM 0 0 0 0 1011.9 1011.8 0.0
29/01:00am 23.0 26.5 19.6 81 2.2 CALM 0 0 0 0 1012.1 1012.0 0.0
29/12:30am 23.0 26.6 19.8 82 2.1 CALM 0 0 0 0 1012.2 1012.1 0.0
29/12:00am 23.0 26.5 19.6 81 2.2 CALM 0 0 0 0 1012.5 1012.4 0.0
 
Date/Time
CST
Temp
°C
App
Temp
°C
Dew
Point
Rel
Hum
%
Delta-T
°C
Wind Press
QNH
hPa
Press
MSL
hPa
Rain
since 9 am
mm
Dir
 
Spd
km/h
Gust
km/h
Spd
kts
Gust
kts
28/11:30pm 22.9 26.2 19.1 79 2.4 CALM 0 0 0 0 1012.5 1012.4 0.0
28/11:00pm 23.4 26.7 19.1 77 2.7 CALM 0 0 0 0 1012.5 1012.4 0.0
28/10:30pm 23.6 26.8 18.9 75 3.0 CALM 0 0 0 0 1012.4 1012.3 0.0
28/10:00pm 23.8 27.1 19.1 75 3.0 CALM 0 0 0 0 1012.3 1012.2 0.0
28/09:30pm 24.0 27.0 18.4 71 3.5 CALM 0 0 0 0 1012.1 1012.0 0.0
28/09:00pm 25.1 28.0 18.3 66 4.3 CALM 0 0 0 0 1011.9 1011.8 0.0
28/08:30pm 25.5 28.5 18.4 65 4.5 CALM 0 0 0 0 1011.6 1011.5 0.0
28/08:00pm 26.9 28.2 17.1 55 6.1 NNW 6 6 3 3 1011.2 1011.1 0.0
28/07:30pm 28.4 29.5 17.0 50 7.2 NNW 7 9 4 5 1010.8 1010.7 0.0
28/07:00pm 29.2 30.1 16.0 44 8.2 NNW 6 7 3 4 1010.6 1010.5 0.0
28/06:30pm 31.2 31.3 15.6 39 9.7 NW 9 13 5 7 1010.4 1010.3 0.0
28/06:00pm 32.4 33.7 19.3 46 8.6 NNW 11 17 6 9 1010.1 1010.0 0.0
28/05:30pm 32.8 32.8 18.2 42 9.5 N 15 20 8 11 1009.8 1009.7 0.0
28/05:00pm 33.1 33.3 18.5 42 9.5 NNW 15 20 8 11 1009.7 1009.6 0.0
28/04:30pm 33.6 32.6 16.5 36 10.8 NNW 17 22 9 12 1009.6 1009.5 0.0
28/04:00pm 34.0 33.3 16.4 35 11.1 NNW 15 24 8 13 1009.6 1009.5 0.0
28/03:30pm 35.6 34.9 16.4 32 12.2 NNW 15 24 8 13 1009.8 1009.7 0.0
28/03:00pm 35.5 34.4 15.3 30 12.7 NNW 15 20 8 11 1010.0 1009.9 0.0
28/02:30pm 35.6 34.9 15.3 29 12.7 NNW 13 20 7 11 1010.3 1010.2 0.0
28/02:00pm 36.2 35.7 15.9 30 12.9 N 13 19 7 10 1010.9 1010.8 0.0
28/01:30pm 35.5 34.9 14.7 28 12.9 NW 11 17 6 9 1011.5 1011.4 0.0
28/01:00pm 35.5 35.7 15.8 31 12.4 NNW 9 13 5 7 1011.9 1011.8 0.0
28/12:30pm 34.7 34.7 15.1 31 12.2 WNW 9 17 5 9 1012.4 1012.3 0.0
28/12:00pm 34.8 35.3 16.6 33 11.6 S 9 15 5 8 1012.9 1012.8 0.0
28/11:30am 33.8 35.0 18.3 39 10.1 S 9 15 5 8 1013.3 1013.2 0.0
28/11:00am 32.7 35.1 20.9 49 7.9 S 9 15 5 8 1013.7 1013.6 0.0
28/10:30am 31.3 33.7 20.9 54 7.0 S 9 15 5 8 1014.2 1014.1 0.0
28/10:00am 29.8 32.2 21.5 61 5.6 S 11 17 6 9 1014.2 1014.1 0.0
28/09:30am 28.3 31.5 22.3 70 4.1 S 9 13 5 7 1014.2 1014.1 0.0
28/09:00am 27.0 31.8 23.5 81 2.4 SSW 4 6 2 3 1014.0 1013.9 0.0
28/08:30am 25.1 30.7 23.5 91 1.1 CALM 0 0 0 0 1013.7 1013.6 0.0
28/08:00am 22.2 26.3 20.7 91 1.0 CALM 0 0 0 0 1013.6 1013.5 0.0
28/07:30am 21.5 25.1 19.8 90 1.1 CALM 0 0 0 0 1013.3 1013.2 0.0
28/07:00am 21.6 25.3 19.9 90 1.1 CALM 0 0 0 0 1013.1 1013.0 0.0
28/06:30am 21.7 25.4 20.0 90 1.1 CALM 0 0 0 0 1012.7 1012.6 0.0
28/06:00am 22.1 26.0 20.4 90 1.1 CALM 0 0 0 0 1012.6 1012.5 0.0
28/05:30am 22.3 26.3 20.6 90 1.1 CALM 0 0 0 0 1012.6 1012.5 0.0
28/05:00am 22.0 25.8 20.1 89 1.2 CALM 0 0 0 0 1012.6 1012.5 0.0
28/04:30am 22.6 26.8 20.9 90 1.1 CALM 0 0 0 0 1012.5 1012.4 0.0
28/04:00am 22.6 25.5 20.7 89 1.2 E 6 7 3 4 1012.6 1012.5 0.0
28/03:30am 22.7 26.8 20.8 89 1.2 CALM 0 0 0 0 1012.7 1012.6 0.0
28/03:00am 22.7 26.7 20.6 88 1.4 CALM 0 0 0 0 1013.0 1012.9 0.0
28/02:30am 23.3 27.7 21.4 89 1.3 CALM 0 0 0 0 1012.9 1012.8 0.0
28/02:00am 23.6 28.1 21.5 88 1.4 CALM 0 0 0 0 1013.1 1013.0 0.0
28/01:30am 23.6 28.0 21.3 87 1.5 CALM 0 0 0 0 1013.2 1013.1 0.0
28/01:00am 23.8 28.3 21.5 87 1.5 CALM 0 0 0 0 1013.2 1013.1 0.0
28/12:30am 24.5 29.3 22.2 87 1.5 CALM 0 0 0 0 1013.3 1013.2 0.0
28/12:00am 24.5 28.2 22.2 87 1.5 SE 6 7 3 4 1013.6 1013.5 0.0
 
Date/Time
CST
Temp
°C
App
Temp
°C
Dew
Point
Rel
Hum
%
Delta-T
°C
Wind Press
QNH
hPa
Press
MSL
hPa
Rain
since 9 am
mm
Dir
 
Spd
km/h
Gust
km/h
Spd
kts
Gust
kts
27/11:30pm 24.6 29.3 21.9 85 1.8 CALM 0 0 0 0 1013.4 1013.3 0.0

Other Formats:

Comma delimited format used in spreadsheet applications
http://www.bom.gov.au/fwo/IDD60801/IDD60801.94100.axf

JavaScript Object Notation format (JSON) in row-major order
http://www.bom.gov.au/fwo/IDD60801/IDD60801.94100.json